Time;durP1;ratioP1;P1;durP2;ratioP2;P2;SDS_P1;SDS_P2;PMS_P1;PMS_P2;Temp;Humidity;BMP_temperature;BMP_pressure;BME280_temperature;BME280_humidity;BME280_pressure;Samples;Min_cycle;Max_cycle;Signal;HPM_P1;HPM_P2
2022/07/11 00:00:46;;;;;;;3.50;1.80;;;19.80;99.90;;;;;;4128946;28;20026;-69
2022/07/11 00:02:47;;;;;;;3.03;1.70;;;19.90;99.90;;;;;;4128190;28;20031;-69
2022/07/11 00:04:47;;;;;;;2.70;1.50;;;19.80;99.90;;;;;;4126951;28;20043;-69
2022/07/11 00:06:48;;;;;;;2.85;1.52;;;19.80;99.90;;;;;;4120559;28;20077;-69
2022/07/11 00:08:49;;;;;;;2.85;1.40;;;19.80;99.90;;;;;;4129206;28;20042;-69
2022/07/11 00:10:49;;;;;;;2.83;1.60;;;19.80;99.90;;;;;;4128844;28;20109;-69
2022/07/11 00:12:50;;;;;;;1.88;1.50;;;19.80;99.90;;;;;;4127575;28;20054;-69
2022/07/11 00:14:50;;;;;;;3.92;1.50;;;19.80;99.90;;;;;;4111630;28;20031;-69
2022/07/11 00:16:52;;;;;;;2.67;1.65;;;19.80;99.90;;;;;;4128059;28;20038;-69
2022/07/11 00:18:53;;;;;;;2.27;1.57;;;19.80;99.90;;;;;;4128302;28;20030;-69
2022/07/11 00:20:53;;;;;;;3.75;1.70;;;19.70;99.90;;;;;;4126702;28;20096;-69
2022/07/11 00:22:54;;;;;;;1.88;1.48;;;19.70;99.90;;;;;;4127416;28;20121;-69
2022/07/11 00:24:54;;;;;;;4.22;1.83;;;19.70;99.90;;;;;;4124983;28;20046;-69
2022/07/11 00:26:55;;;;;;;3.78;1.75;;;19.70;99.90;;;;;;4127544;28;20074;-69
2022/07/11 00:28:56;;;;;;;2.85;1.35;;;19.70;99.90;;;;;;4127648;28;20547;-69
2022/07/11 00:30:57;;;;;;;4.50;2.13;;;19.70;99.90;;;;;;4128112;28;20039;-69
2022/07/11 00:32:57;;;;;;;3.60;1.48;;;19.70;99.90;;;;;;4126546;28;20026;-69
2022/07/11 00:34:58;;;;;;;2.15;1.23;;;19.70;99.90;;;;;;4125682;28;20027;-69
2022/07/11 00:36:59;;;;;;;4.18;1.30;;;19.70;99.90;;;;;;4128020;28;20042;-69
2022/07/11 00:39:00;;;;;;;2.63;1.48;;;19.70;99.90;;;;;;4125098;28;20088;-69
2022/07/11 00:41:00;;;;;;;2.20;1.50;;;19.70;99.90;;;;;;4125711;28;20416;-69
2022/07/11 00:43:03;;;;;;;3.45;1.70;;;19.70;99.90;;;;;;4125461;28;20061;-69
2022/07/11 00:45:04;;;;;;;2.45;1.38;;;19.70;99.90;;;;;;4125992;28;20057;-70
2022/07/11 00:47:05;;;;;;;2.45;1.40;;;19.70;99.90;;;;;;4127823;28;20066;-69
2022/07/11 00:49:05;;;;;;;1.60;1.05;;;19.70;99.90;;;;;;4125159;28;20041;-69
2022/07/11 00:51:06;;;;;;;3.15;1.48;;;19.70;99.90;;;;;;4125887;28;20087;-69
2022/07/11 00:53:07;;;;;;;2.70;1.50;;;19.70;99.90;;;;;;4126073;28;20098;-69
2022/07/11 00:55:09;;;;;;;2.95;1.58;;;19.70;99.90;;;;;;4126292;28;20034;-70
2022/07/11 00:57:10;;;;;;;;;;;19.70;99.90;;;;;;4126830;28;20027;-69
2022/07/11 00:59:11;;;;;;;3.58;1.50;;;19.70;99.90;;;;;;4125076;28;19925;-68
2022/07/11 01:01:12;;;;;;;2.47;1.52;;;19.70;99.90;;;;;;4126914;28;20398;-69
2022/07/11 01:03:13;;;;;;;1.73;1.27;;;19.70;99.90;;;;;;4126473;28;20034;-69
2022/07/11 01:05:13;;;;;;;2.97;1.50;;;19.70;99.90;;;;;;4124051;28;20367;-69
2022/07/11 01:07:14;;;;;;;1.88;1.10;;;19.60;99.90;;;;;;4127849;28;20046;-69
2022/07/11 01:09:14;;;;;;;2.90;1.30;;;19.60;99.90;;;;;;4127984;28;20034;-69
2022/07/11 01:11:16;;;;;;;2.17;1.40;;;19.60;99.90;;;;;;4124569;28;20034;-69
2022/07/11 01:13:16;;;;;;;8.23;2.05;;;19.60;99.90;;;;;;4126820;28;20038;-69
2022/07/11 01:15:17;;;;;;;1.45;1.33;;;19.60;99.90;;;;;;4123895;28;20053;-69
2022/07/11 01:17:17;;;;;;;2.38;1.50;;;19.50;99.90;;;;;;4128695;28;20038;-69
2022/07/11 01:19:18;;;;;;;4.32;1.45;;;19.50;99.90;;;;;;4127736;28;20065;-69
2022/07/11 01:21:35;;;;;;;3.05;1.60;;;19.50;99.90;;;;;;4127060;28;20112;-69
2022/07/11 01:23:35;;;;;;;4.22;1.50;;;19.50;99.90;;;;;;4126122;28;20066;-69
2022/07/11 01:25:36;;;;;;;2.72;1.58;;;19.50;99.90;;;;;;4124851;28;20034;-68
2022/07/11 01:27:38;;;;;;;3.30;1.85;;;19.40;99.90;;;;;;4127743;28;20054;-68
2022/07/11 01:29:39;;;;;;;2.08;1.70;;;19.40;99.90;;;;;;4127951;28;20031;-69
2022/07/11 01:31:41;;;;;;;2.70;1.67;;;19.40;99.90;;;;;;4125245;28;20506;-69
2022/07/11 01:33:42;;;;;;;2.28;1.50;;;19.40;99.90;;;;;;4128107;28;20084;-69
2022/07/11 01:35:43;;;;;;;2.67;1.38;;;19.30;99.90;;;;;;4127088;28;20534;-68
2022/07/11 01:37:43;;;;;;;2.63;1.75;;;19.40;99.90;;;;;;4128215;28;20030;-68
2022/07/11 01:39:44;;;;;;;4.18;1.33;;;19.40;99.90;;;;;;4128025;28;20045;-69
2022/07/11 01:41:44;;;;;;;2.45;1.65;;;19.30;99.90;;;;;;4125187;28;20038;-69
2022/07/11 01:43:45;;;;;;;2.60;1.30;;;19.30;99.90;;;;;;4128201;28;20045;-69
2022/07/11 01:45:45;;;;;;;2.63;1.63;;;19.40;99.90;;;;;;4126785;28;20053;-69
2022/07/11 01:47:46;;;;;;;3.67;1.60;;;19.30;99.90;;;;;;4127569;28;20038;-69
2022/07/11 01:49:47;;;;;;;5.70;1.60;;;19.30;99.90;;;;;;4128137;28;20038;-69
2022/07/11 01:51:49;;;;;;;2.03;1.35;;;19.30;99.90;;;;;;4126666;28;20073;-69
2022/07/11 01:53:49;;;;;;;3.75;1.90;;;19.30;99.90;;;;;;4127888;28;20371;-69
2022/07/11 01:55:50;;;;;;;3.08;1.77;;;19.30;99.90;;;;;;4126556;28;20041;-69
2022/07/11 01:57:51;;;;;;;3.47;1.80;;;19.30;99.90;;;;;;4128258;28;21124;-69
2022/07/11 01:59:51;;;;;;;3.65;1.55;;;19.30;99.90;;;;;;4128180;28;20030;-69
2022/07/11 02:01:52;;;;;;;2.85;1.45;;;19.30;99.90;;;;;;4128295;28;20565;-69
2022/07/11 02:03:54;;;;;;;4.07;2.15;;;19.30;99.90;;;;;;4129932;28;20441;-69
2022/07/11 02:05:55;;;;;;;3.65;1.85;;;19.30;99.90;;;;;;4129222;28;20038;-69
2022/07/11 02:08:14;;;;;;;4.50;1.92;;;19.30;99.90;;;;;;4131105;28;20069;-69
2022/07/11 02:10:14;;;;;;;4.28;2.15;;;19.30;99.90;;;;;;4129993;28;20034;-69
2022/07/11 02:12:15;;;;;;;3.65;1.67;;;19.30;99.90;;;;;;4129149;28;20040;-69
2022/07/11 02:14:16;;;;;;;5.30;2.00;;;19.30;99.90;;;;;;4128620;28;20038;-69
2022/07/11 02:16:17;;;;;;;2.92;1.55;;;19.30;99.90;;;;;;4129578;28;20042;-69
2022/07/11 02:18:18;;;;;;;4.57;1.95;;;19.30;99.90;;;;;;4131096;28;20061;-69
2022/07/11 02:20:20;;;;;;;2.40;1.33;;;19.30;99.90;;;;;;4130472;28;20073;-69
2022/07/11 02:22:20;;;;;;;2.17;1.48;;;19.30;99.90;;;;;;4128873;28;20034;-69
2022/07/11 02:24:21;;;;;;;4.47;1.83;;;19.30;99.90;;;;;;4130142;28;20552;-69
2022/07/11 02:26:22;;;;;;;5.13;2.03;;;19.30;99.90;;;;;;4130276;28;20491;-69
2022/07/11 02:28:22;;;;;;;3.17;1.63;;;19.30;99.90;;;;;;4130874;28;20481;-69
2022/07/11 02:30:23;;;;;;;1.73;1.10;;;19.30;99.90;;;;;;4129803;28;20038;-69
2022/07/11 02:32:24;;;;;;;2.28;1.40;;;19.30;99.90;;;;;;4128148;28;20026;-69
2022/07/11 02:34:24;;;;;;;4.10;1.90;;;19.30;99.90;;;;;;4128566;28;20037;-69
2022/07/11 02:36:25;;;;;;;2.70;1.40;;;19.30;99.90;;;;;;4130156;28;20053;-69
2022/07/11 02:38:26;;;;;;;3.35;1.10;;;19.30;99.90;;;;;;4130370;28;20030;-69
2022/07/11 02:40:27;;;;;;;3.85;1.23;;;19.30;99.90;;;;;;4129320;28;20035;-69
2022/07/11 02:42:28;;;;;;;2.15;1.10;;;19.30;99.90;;;;;;4129830;28;20050;-69
2022/07/11 02:44:28;;;;;;;1.10;0.90;;;19.30;99.90;;;;;;4128338;28;20034;-69
2022/07/11 02:46:29;;;;;;;5.90;1.30;;;19.40;99.90;;;;;;4130239;28;20072;-69
2022/07/11 02:48:30;;;;;;;2.55;1.23;;;19.40;99.90;;;;;;4130291;28;20485;-69
2022/07/11 02:50:31;;;;;;;1.60;1.00;;;19.40;99.90;;;;;;4129865;28;20034;-69
2022/07/11 02:52:32;;;;;;;2.15;1.13;;;19.30;99.90;;;;;;4129388;28;20053;-69
2022/07/11 02:54:33;;;;;;;2.88;0.90;;;19.30;99.90;;;;;;4128995;28;20363;-69
2022/07/11 02:56:33;;;;;;;2.70;1.20;;;19.30;99.90;;;;;;4129703;28;20033;-69
2022/07/11 02:58:34;;;;;;;2.00;1.05;;;19.30;99.90;;;;;;4130686;28;20038;-69
2022/07/11 03:00:34;;;;;;;2.67;1.30;;;19.30;99.90;;;;;;4129704;28;20510;-69
2022/07/11 03:02:35;;;;;;;2.22;0.88;;;19.30;99.90;;;;;;4127952;28;20057;-69
2022/07/11 03:04:36;;;;;;;1.15;0.93;;;19.30;99.90;;;;;;4129367;28;20038;-69
2022/07/11 03:06:40;;;;;;;1.08;0.90;;;19.30;99.90;;;;;;4129650;28;20489;-69
2022/07/11 03:08:40;;;;;;;1.88;0.80;;;19.40;99.90;;;;;;4129727;28;20053;-68
2022/07/11 03:10:41;;;;;;;1.85;1.02;;;19.40;99.90;;;;;;4129540;28;20386;-69
2022/07/11 03:12:42;;;;;;;1.90;1.00;;;19.40;99.90;;;;;;4129364;28;20037;-69
2022/07/11 03:14:42;;;;;;;2.30;1.13;;;19.40;99.90;;;;;;4126999;28;20034;-68
2022/07/11 03:16:43;;;;;;;2.53;1.00;;;19.30;99.90;;;;;;4129497;28;20026;-68
2022/07/11 03:18:44;;;;;;;2.28;1.20;;;19.40;99.90;;;;;;4129522;28;20094;-68
2022/07/11 03:20:44;;;;;;;2.03;0.98;;;19.30;99.90;;;;;;4129311;28;20374;-69
2022/07/11 03:22:45;;;;;;;2.08;1.10;;;19.30;99.90;;;;;;4129452;28;20030;-69
2022/07/11 03:24:46;;;;;;;1.48;1.10;;;19.30;99.90;;;;;;4127397;28;20069;-69
2022/07/11 03:26:46;;;;;;;2.53;1.13;;;19.30;99.90;;;;;;4129082;28;20045;-69
2022/07/11 03:28:47;;;;;;;2.35;1.23;;;19.30;99.90;;;;;;4129660;28;20041;-69
2022/07/11 03:30:47;;;;;;;2.90;1.17;;;19.30;99.90;;;;;;4129292;28;20031;-69
2022/07/11 03:32:48;;;;;;;3.53;1.60;;;19.30;99.90;;;;;;4122665;28;20026;-69
2022/07/11 03:37:10;;;;;;;2.90;1.20;;;19.30;99.90;;;;;;4129680;28;20367;-69
2022/07/11 03:39:10;;;;;;;2.50;0.80;;;19.30;99.90;;;;;;4125019;28;20494;-69
2022/07/11 03:41:11;;;;;;;1.45;1.05;;;19.30;99.90;;;;;;4128912;28;20097;-69
2022/07/11 03:43:11;;;;;;;1.05;0.80;;;19.30;99.90;;;;;;4129230;28;20034;-69
2022/07/11 03:45:12;;;;;;;1.83;1.10;;;19.30;99.90;;;;;;4128292;28;20038;-70
2022/07/11 03:47:13;;;;;;;1.23;1.00;;;19.40;99.90;;;;;;4128958;28;20134;-68
2022/07/11 03:49:13;;;;;;;1.70;1.10;;;19.30;99.90;;;;;;4128793;28;20118;-69
2022/07/11 03:51:14;;;;;;;1.88;0.80;;;19.40;99.90;;;;;;4127018;28;20192;-68
2022/07/11 03:53:15;;;;;;;1.83;0.90;;;19.40;99.90;;;;;;4127273;28;20042;-68
2022/07/11 03:55:16;;;;;;;1.70;1.02;;;19.40;99.90;;;;;;4126531;28;20403;-69
2022/07/11 03:57:16;;;;;;;2.42;0.88;;;19.40;99.90;;;;;;4127447;28;20125;-69
2022/07/11 03:59:17;;;;;;;1.00;0.80;;;19.40;99.90;;;;;;4128929;28;20041;-69
2022/07/11 04:01:19;;;;;;;2.65;0.80;;;19.40;99.90;;;;;;4126688;28;20150;-69
2022/07/11 04:03:20;;;;;;;1.05;0.70;;;19.40;99.90;;;;;;4128284;28;20045;-69
2022/07/11 04:05:20;;;;;;;2.20;0.88;;;19.40;99.90;;;;;;4124860;28;20027;-69
2022/07/11 04:07:21;;;;;;;1.42;0.90;;;19.40;99.90;;;;;;4128260;28;20089;-69
2022/07/11 04:09:22;;;;;;;1.08;0.70;;;19.40;99.90;;;;;;4125496;28;20065;-69
2022/07/11 04:11:23;;;;;;;2.15;0.88;;;19.50;99.90;;;;;;4127582;28;20482;-69
2022/07/11 04:13:23;;;;;;;1.00;0.73;;;19.50;99.90;;;;;;4127130;28;20058;-69
2022/07/11 04:15:24;;;;;;;1.88;0.70;;;19.50;99.90;;;;;;4127339;28;20049;-69
2022/07/11 04:17:26;;;;;;;1.23;0.60;;;19.50;99.90;;;;;;4126331;28;20449;-69
2022/07/11 04:19:27;;;;;;;0.93;0.68;;;19.50;99.90;;;;;;4128264;28;20536;-69
2022/07/11 04:21:27;;;;;;;0.75;0.68;;;19.50;99.90;;;;;;4126701;28;20039;-69
2022/07/11 04:23:28;;;;;;;1.92;1.10;;;19.60;99.90;;;;;;4128394;28;20109;-69
2022/07/11 04:25:28;;;;;;;3.05;1.00;;;19.50;99.90;;;;;;4129347;28;22001;-69
2022/07/11 04:27:29;;;;;;;0.93;0.75;;;19.60;99.90;;;;;;4128426;28;20120;-69
2022/07/11 04:29:30;;;;;;;2.38;0.68;;;19.60;99.90;;;;;;4128599;28;20049;-69
2022/07/11 04:31:30;;;;;;;1.80;1.02;;;19.60;99.90;;;;;;4125338;28;20027;-69
2022/07/11 04:33:31;;;;;;;1.65;0.80;;;19.50;99.90;;;;;;4128389;28;20034;-69
2022/07/11 04:35:31;;;;;;;1.08;0.70;;;19.50;99.90;;;;;;4126137;28;20042;-69
2022/07/11 04:37:32;;;;;;;1.50;0.65;;;19.60;99.90;;;;;;4127740;28;20533;-69
2022/07/11 04:39:33;;;;;;;1.52;0.88;;;19.60;99.90;;;;;;4123305;28;20456;-69
2022/07/11 04:41:33;;;;;;;1.42;0.77;;;19.60;99.90;;;;;;4125618;28;20042;-69
2022/07/11 04:43:35;;;;;;;3.22;0.80;;;19.60;99.90;;;;;;4126005;28;20115;-70
2022/07/11 04:45:36;;;;;;;1.83;0.50;;;19.60;99.90;;;;;;4124687;28;20485;-69
2022/07/11 04:47:36;;;;;;;0.43;0.43;;;19.50;99.90;;;;;;4127462;28;20034;-70
2022/07/11 04:49:37;;;;;;;1.30;0.50;;;19.60;99.90;;;;;;4110606;28;20035;-69
2022/07/11 04:51:38;;;;;;;1.13;0.60;;;19.50;99.90;;;;;;4110064;28;20423;-69
2022/07/11 04:53:38;;;;;;;1.05;0.30;;;19.50;99.90;;;;;;4126862;28;20038;-70
2022/07/11 04:55:42;;;;;;;1.52;0.43;;;19.50;99.90;;;;;;4125405;28;20104;-69
2022/07/11 04:57:42;;;;;;;0.50;0.38;;;19.50;99.90;;;;;;4121005;28;20034;-69
2022/07/11 04:59:43;;;;;;;1.42;0.60;;;19.50;99.90;;;;;;4125443;28;20027;-69
2022/07/11 05:01:44;;;;;;;0.38;0.38;;;19.50;99.90;;;;;;4126418;28;20045;-68
2022/07/11 05:03:45;;;;;;;1.27;0.43;;;19.50;99.90;;;;;;4125348;28;20044;-68
2022/07/11 05:05:45;;;;;;;1.00;0.30;;;19.50;99.90;;;;;;4121477;28;20556;-69
2022/07/11 05:07:46;;;;;;;0.90;0.40;;;19.50;99.90;;;;;;4123466;28;20540;-68
2022/07/11 05:09:47;;;;;;;2.03;0.70;;;19.50;99.90;;;;;;4120863;28;20120;-69
2022/07/11 05:11:47;;;;;;;0.93;0.60;;;19.50;99.90;;;;;;4121252;28;20471;-69
2022/07/11 05:13:48;;;;;;;0.57;0.47;;;19.50;99.90;;;;;;4124221;28;20042;-69
2022/07/11 05:15:48;;;;;;;1.33;0.60;;;19.50;99.90;;;;;;4121439;28;20058;-69
2022/07/11 05:17:49;;;;;;;0.73;0.55;;;19.50;99.90;;;;;;4124846;28;20035;-69
2022/07/11 05:19:50;;;;;;;0.98;0.60;;;19.50;99.90;;;;;;4122819;28;20030;-69
2022/07/11 05:21:51;;;;;;;0.90;0.52;;;19.50;99.90;;;;;;4123120;28;20046;-69
2022/07/11 05:23:51;;;;;;;1.10;0.70;;;19.60;99.90;;;;;;4121437;28;20504;-69
2022/07/11 05:25:52;;;;;;;0.85;0.60;;;19.50;99.90;;;;;;4123384;28;20124;-69
2022/07/11 05:27:52;;;;;;;1.23;0.73;;;19.50;99.90;;;;;;4122367;28;20047;-69
2022/07/11 05:29:53;;;;;;;1.05;0.70;;;19.50;99.90;;;;;;4124446;28;20046;-69
2022/07/11 05:31:53;;;;;;;0.80;0.63;;;19.50;99.90;;;;;;4122978;28;20501;-69
2022/07/11 05:33:54;;;;;;;1.40;0.60;;;19.50;99.90;;;;;;4124374;28;20026;-69
2022/07/11 05:35:55;;;;;;;1.48;0.90;;;19.50;99.90;;;;;;4125602;28;20041;-69
2022/07/11 05:37:55;;;;;;;1.17;0.70;;;19.50;99.90;;;;;;4130820;28;20538;-69
2022/07/11 05:39:56;;;;;;;1.58;0.82;;;19.50;99.90;;;;;;4130011;28;20489;-69
2022/07/11 05:41:56;;;;;;;2.53;0.77;;;19.50;99.90;;;;;;4127517;28;20041;-69
2022/07/11 05:43:57;;;;;;;1.73;0.88;;;19.50;99.90;;;;;;4128703;28;20071;-69
2022/07/11 05:45:57;;;;;;;1.95;0.80;;;19.50;99.90;;;;;;4130000;28;20046;-69
2022/07/11 05:47:58;;;;;;;1.13;0.60;;;19.40;99.90;;;;;;4129346;28;20050;-69
2022/07/11 05:49:58;;;;;;;1.02;0.60;;;19.40;99.90;;;;;;4130999;28;20069;-69
2022/07/11 05:51:59;;;;;;;1.23;0.50;;;19.50;99.90;;;;;;4128407;28;20027;-69
2022/07/11 05:54:00;;;;;;;1.30;0.60;;;19.50;99.90;;;;;;4130130;28;20039;-69
2022/07/11 05:56:01;;;;;;;1.63;0.80;;;19.50;99.90;;;;;;4127947;28;22333;-69
2022/07/11 05:58:02;;;;;;;1.77;0.70;;;19.40;99.90;;;;;;4130305;28;20498;-69
2022/07/11 06:00:03;;;;;;;2.88;1.00;;;19.50;99.90;;;;;;4128417;28;20069;-71
2022/07/11 06:02:04;;;;;;;1.10;0.70;;;19.40;99.90;;;;;;4126859;28;20045;-69
2022/07/11 06:04:05;;;;;;;1.60;0.82;;;19.40;99.90;;;;;;4125834;28;20039;-69
2022/07/11 06:06:06;;;;;;;2.78;1.20;;;19.30;99.90;;;;;;4124802;28;20053;-69
2022/07/11 06:10:27;;;;;;;1.65;0.70;;;19.30;99.90;;;;;;4128610;28;20481;-69
2022/07/11 06:12:28;;;;;;;1.30;0.80;;;19.30;99.90;;;;;;4129505;28;20037;-69
2022/07/11 06:14:29;;;;;;;1.58;0.93;;;19.30;99.90;;;;;;4121836;28;20046;-69
2022/07/11 06:16:29;;;;;;;1.42;0.90;;;19.20;99.90;;;;;;4125319;28;20038;-69
2022/07/11 06:18:30;;;;;;;0.73;0.43;;;19.20;99.90;;;;;;4124600;28;20042;-69
2022/07/11 06:20:31;;;;;;;0.95;0.80;;;19.30;99.90;;;;;;4126107;28;20030;-69
2022/07/11 06:22:32;;;;;;;1.13;0.60;;;19.30;99.90;;;;;;4125756;28;20042;-69
2022/07/11 06:24:32;;;;;;;2.13;0.80;;;19.30;99.90;;;;;;4137464;28;20059;-69
2022/07/11 06:26:33;;;;;;;5.05;0.90;;;19.30;99.90;;;;;;4129512;28;20038;-69
2022/07/11 06:28:34;;;;;;;1.05;0.80;;;19.30;99.90;;;;;;4131623;28;20022;-72
2022/07/11 06:30:36;;;;;;;2.58;1.10;;;19.30;99.90;;;;;;4138598;28;20030;-72
2022/07/11 06:32:39;;;;;;;1.17;0.77;;;19.30;99.90;;;;;;4137195;28;20029;-72
2022/07/11 06:34:39;;;;;;;0.70;0.60;;;19.30;99.90;;;;;;4133288;28;20031;-73
2022/07/11 06:36:40;;;;;;;1.33;0.70;;;19.30;99.90;;;;;;4141647;28;20508;-72
2022/07/11 06:38:41;;;;;;;2.15;0.80;;;19.40;99.90;;;;;;4137309;28;20088;-72
2022/07/11 06:40:42;;;;;;;0.40;0.40;;;19.40;99.90;;;;;;4138092;28;20031;-72
2022/07/11 06:42:45;;;;;;;0.90;0.77;;;19.40;99.90;;;;;;4137036;28;20034;-72
2022/07/11 06:44:46;;;;;;;1.42;0.80;;;19.40;99.90;;;;;;4136423;28;20048;-72
2022/07/11 06:46:48;;;;;;;2.05;0.85;;;19.40;99.90;;;;;;4137422;28;20039;-72
2022/07/11 06:48:49;;;;;;;0.93;0.80;;;19.40;99.90;;;;;;4138823;28;20027;-72
2022/07/11 06:50:50;;;;;;;1.30;0.70;;;19.40;99.90;;;;;;4133824;28;20361;-72
2022/07/11 06:52:50;;;;;;;1.63;0.80;;;19.40;99.90;;;;;;4137967;28;20084;-72
2022/07/11 06:54:51;;;;;;;1.90;0.82;;;19.50;99.90;;;;;;4136691;28;20118;-72
2022/07/11 06:56:51;;;;;;;1.30;0.60;;;19.50;99.90;;;;;;4136376;28;20121;-72
2022/07/11 06:58:52;;;;;;;1.40;0.70;;;19.50;99.90;;;;;;4135963;28;20057;-72
2022/07/11 07:00:53;;;;;;;0.63;0.50;;;19.50;99.90;;;;;;4135655;28;20034;-73
2022/07/11 07:02:56;;;;;;;2.05;0.65;;;19.60;99.90;;;;;;4137071;28;20034;-72
2022/07/11 07:05:00;;;;;;;0.50;0.50;;;19.60;99.90;;;;;;4137708;28;20033;-72
2022/07/11 07:07:01;;;;;;;1.30;0.52;;;19.60;99.90;;;;;;4138233;28;20077;-72
2022/07/11 07:09:03;;;;;;;4.68;1.20;;;19.60;99.90;;;;;;4122996;28;20146;-72
2022/07/11 07:11:04;;;;;;;0.50;0.40;;;19.60;99.90;;;;;;4134260;28;20106;-73
2022/07/11 07:13:04;;;;;;;0.77;0.45;;;19.60;99.90;;;;;;4137515;28;20038;-72
2022/07/11 07:15:06;;;;;;;0.57;0.38;;;19.70;99.90;;;;;;4136813;28;20034;-73
2022/07/11 07:17:06;;;;;;;1.63;0.40;;;19.70;99.90;;;;;;4135401;28;20035;-72
2022/07/11 07:19:07;;;;;;;1.00;0.30;;;19.70;99.90;;;;;;4137515;28;20045;-72
2022/07/11 07:21:08;;;;;;;0.70;0.47;;;19.80;99.90;;;;;;4137320;28;20045;-72
2022/07/11 07:23:08;;;;;;;0.75;0.30;;;19.80;99.90;;;;;;4136657;28;20090;-72
2022/07/11 07:25:09;;;;;;;0.98;0.40;;;19.80;99.90;;;;;;4137389;28;20118;-74
2022/07/11 07:27:10;;;;;;;0.35;0.20;;;19.80;99.90;;;;;;4138437;28;20030;-73
2022/07/11 07:29:10;;;;;;;1.40;0.70;;;19.90;99.90;;;;;;4138383;28;20946;-73
2022/07/11 07:31:11;;;;;;;0.22;0.22;;;19.90;99.90;;;;;;4137237;28;20499;-73
2022/07/11 07:33:12;;;;;;;0.40;0.32;;;20.00;99.90;;;;;;4136495;28;20042;-73
2022/07/11 07:35:13;;;;;;;0.10;0.10;;;20.00;99.90;;;;;;4136364;28;20126;-75
2022/07/11 07:37:14;;;;;;;1.20;0.43;;;20.00;99.90;;;;;;4137096;28;20030;-71
2022/07/11 07:39:15;;;;;;;0.10;0.10;;;20.10;99.90;;;;;;4125494;28;20073;-73
2022/07/11 07:41:16;;;;;;;0.52;0.20;;;20.10;99.90;;;;;;4135773;28;20038;-73
2022/07/11 07:43:16;;;;;;;0.10;0.10;;;20.20;99.90;;;;;;4136859;28;20034;-72
2022/07/11 07:45:17;;;;;;;0.10;0.10;;;20.20;99.90;;;;;;4136006;28;20050;-73
2022/07/11 07:47:17;;;;;;;0.20;0.20;;;20.30;99.90;;;;;;4137495;28;20042;-73
2022/07/11 07:49:18;;;;;;;0.30;0.20;;;20.40;99.90;;;;;;4137612;28;20092;-74
2022/07/11 07:51:19;;;;;;;0.20;0.20;;;20.40;99.90;;;;;;4131427;28;20102;-73
2022/07/11 07:53:19;;;;;;;0.10;0.10;;;20.50;99.90;;;;;;4136469;28;20030;-73
2022/07/11 07:55:20;;;;;;;0.50;0.03;;;20.60;99.90;;;;;;4135844;28;20030;-73
2022/07/11 07:57:20;;;;;;;0.05;0.05;;;20.70;99.90;;;;;;4138782;28;20041;-73
2022/07/11 07:59:24;;;;;;;1.17;0.20;;;20.80;99.90;;;;;;4133197;28;20085;-73
2022/07/11 08:01:38;;;;;;;0.40;0.20;;;20.90;99.90;;;;;;4134530;28;20058;-73
2022/07/11 08:03:39;;;;;;;0.10;0.10;;;20.90;99.90;;;;;;4138094;28;20031;-73
2022/07/11 08:05:39;;;;;;;0.10;0.10;;;21.00;99.90;;;;;;4136650;28;20053;-73
2022/07/11 08:07:40;;;;;;;0.30;0.20;;;21.10;99.90;;;;;;4134828;28;20042;-73
2022/07/11 08:09:41;;;;;;;0.20;0.10;;;21.20;99.90;;;;;;4136883;28;20027;-73
2022/07/11 08:11:41;;;;;;;0.50;0.35;;;21.30;99.90;;;;;;4133925;28;20027;-73
2022/07/11 08:13:42;;;;;;;1.02;0.10;;;21.40;99.90;;;;;;4135992;28;20034;-73
2022/07/11 08:15:43;;;;;;;0.20;0.10;;;21.40;99.90;;;;;;4134813;28;20505;-75
2022/07/11 08:17:43;;;;;;;1.08;0.30;;;21.50;99.90;;;;;;4136621;28;20026;-72
2022/07/11 08:19:44;;;;;;;0.10;0.10;;;21.60;99.90;;;;;;4135986;28;20038;-71
2022/07/11 08:21:45;;;;;;;0.10;0.10;;;21.60;99.90;;;;;;4133065;28;20093;-73
2022/07/11 08:23:45;;;;;;;0.15;0.15;;;21.70;99.90;;;;;;4134528;28;20037;-73
2022/07/11 08:25:46;;;;;;;0.40;0.10;;;21.70;99.90;;;;;;4133231;28;20038;-70
2022/07/11 08:27:47;;;;;;;0.10;0.10;;;21.70;99.90;;;;;;4134352;28;20038;-73
2022/07/11 08:29:47;;;;;;;0.00;0.00;;;21.80;99.90;;;;;;4134519;28;20030;-73
2022/07/11 08:31:48;;;;;;;0.10;0.10;;;21.70;99.90;;;;;;4132226;28;20030;-74
2022/07/11 08:33:50;;;;;;;0.20;0.10;;;21.70;99.90;;;;;;4134552;28;20041;-73
2022/07/11 08:35:51;;;;;;;0.00;0.00;;;21.70;99.90;;;;;;4133754;28;20030;-73
2022/07/11 08:37:51;;;;;;;0.13;0.10;;;21.70;99.90;;;;;;4133826;28;20389;-74
2022/07/11 08:39:52;;;;;;;0.10;0.10;;;21.80;99.90;;;;;;4135558;28;20067;-74
2022/07/11 08:41:54;;;;;;;0.52;0.10;;;21.80;99.90;;;;;;4130283;28;20068;-73
2022/07/11 08:43:54;;;;;;;0.10;0.10;;;21.70;99.90;;;;;;4133133;28;20026;-73
2022/07/11 08:45:56;;;;;;;0.20;0.20;;;21.70;99.90;;;;;;4135150;28;20081;-73
2022/07/11 08:47:58;;;;;;;0.10;0.10;;;21.60;99.90;;;;;;4138232;28;20056;-74
2022/07/11 08:49:59;;;;;;;0.32;0.10;;;21.60;99.90;;;;;;4133750;28;20062;-73
2022/07/11 08:52:02;;;;;;;0.30;0.25;;;21.60;99.90;;;;;;4131917;28;20045;-74
2022/07/11 08:54:03;;;;;;;0.08;0.00;;;21.60;99.90;;;;;;4128603;28;20041;-74
2022/07/11 08:56:04;;;;;;;0.10;0.10;;;21.70;99.90;;;;;;4118160;28;20410;-74
2022/07/11 08:58:07;;;;;;;0.20;0.20;;;21.70;99.90;;;;;;4131117;28;20034;-74
2022/07/11 09:00:09;;;;;;;0.00;0.00;;;21.60;99.90;;;;;;4131766;28;20034;-74
2022/07/11 09:02:11;;;;;;;0.10;0.10;;;21.70;99.90;;;;;;4132719;28;20097;-73
2022/07/11 09:04:13;;;;;;;0.10;0.10;;;21.70;99.90;;;;;;4128283;28;20065;-73
2022/07/11 09:06:14;;;;;;;0.10;0.10;;;21.70;99.90;;;;;;4132572;28;20065;-74
2022/07/11 09:08:15;;;;;;;0.10;0.10;;;21.70;99.90;;;;;;4134430;28;20058;-72
2022/07/11 09:10:17;;;;;;;0.20;0.13;;;21.70;99.90;;;;;;4131758;28;20065;-73
2022/07/11 09:12:19;;;;;;;0.10;0.08;;;21.70;99.90;;;;;;4130098;28;20039;-74
2022/07/11 09:14:25;;;;;;;0.20;0.10;;;21.60;99.90;;;;;;4132722;28;20034;-73
2022/07/11 09:16:28;;;;;;;0.10;0.10;;;21.60;99.90;;;;;;4134089;28;20102;-73
2022/07/11 09:18:34;;;;;;;0.52;0.20;;;21.60;99.90;;;;;;4134848;28;20431;-73
2022/07/11 09:25:55;;;;;;;0.40;0.10;;;21.60;99.90;;;;;;4108984;28;20101;-73
2022/07/11 09:28:04;;;;;;;0.00;0.00;;;21.60;99.90;;;;;;4131105;28;20038;-74
2022/07/11 09:30:24;;;;;;;0.20;0.10;;;21.60;99.90;;;;;;4130238;28;20076;-74
2022/07/11 09:32:25;;;;;;;0.13;0.10;;;21.60;99.90;;;;;;4132319;28;20030;-74
2022/07/11 09:34:29;;;;;;;0.20;0.20;;;21.60;99.90;;;;;;4130476;28;20069;-73
2022/07/11 09:36:46;;;;;;;1.08;0.20;;;21.60;99.90;;;;;;4133183;28;20038;-74
2022/07/11 09:38:56;;;;;;;0.52;0.10;;;21.60;99.90;;;;;;4131192;28;20053;-73
2022/07/11 09:40:57;;;;;;;0.57;0.10;;;21.60;99.90;;;;;;4130724;28;20030;-74
2022/07/11 09:42:58;;;;;;;0.15;0.10;;;21.60;99.90;;;;;;4131353;28;20034;-73
2022/07/11 09:45:12;;;;;;;0.10;0.10;;;21.50;99.90;;;;;;4133291;28;20150;-74
2022/07/11 09:47:12;;;;;;;0.13;0.10;;;21.50;99.90;;;;;;4130431;28;20038;-74
2022/07/11 09:49:14;;;;;;;0.20;0.20;;;21.50;99.90;;;;;;4132042;28;20501;-73
2022/07/11 09:51:20;;;;;;;0.10;0.10;;;21.50;99.90;;;;;;4130161;28;20042;-72
2022/07/11 09:53:20;;;;;;;0.45;0.20;;;21.40;99.90;;;;;;4131746;28;20045;-73
2022/07/11 09:55:21;;;;;;;0.32;0.10;;;21.40;99.90;;;;;;4129736;28;21219;-73
2022/07/11 09:57:32;;;;;;;0.10;0.10;;;21.40;99.90;;;;;;4131152;28;20397;-73
2022/07/11 09:59:33;;;;;;;1.50;0.30;;;21.40;99.90;;;;;;4131478;28;20469;-74
2022/07/11 10:01:34;;;;;;;0.13;0.13;;;21.30;99.90;;;;;;4127920;28;20039;-73
2022/07/11 10:03:34;;;;;;;0.20;0.20;;;21.30;99.90;;;;;;4124853;28;20046;-74
2022/07/11 10:05:35;;;;;;;0.20;0.20;;;21.30;99.90;;;;;;4128966;28;20072;-73
2022/07/11 10:07:36;;;;;;;0.20;0.10;;;21.30;99.90;;;;;;4132363;28;20042;-73
2022/07/11 10:09:37;;;;;;;0.10;0.10;;;21.30;99.90;;;;;;4142762;28;25554;-73
2022/07/11 10:11:38;;;;;;;0.13;0.10;;;21.30;99.90;;;;;;4127828;28;20054;-73
2022/07/11 10:13:39;;;;;;;0.98;0.30;;;21.30;99.90;;;;;;4135217;28;20041;-74
2022/07/11 10:15:44;;;;;;;0.10;0.10;;;21.40;99.90;;;;;;4134183;28;20038;-74
2022/07/11 10:18:02;;;;;;;0.52;0.15;;;21.50;99.90;;;;;;4134647;28;20053;-74
2022/07/11 10:20:09;;;;;;;0.30;0.20;;;21.50;99.90;;;;;;4134025;28;20048;-74
2022/07/11 10:22:41;;;;;;;0.43;0.10;;;21.50;99.90;;;;;;4133861;28;20121;-74
2022/07/11 10:25:20;;;;;;;2.45;0.30;;;21.60;99.90;;;;;;4116380;28;20455;-74
2022/07/11 10:27:34;;;;;;;0.22;0.20;;;21.60;99.90;;;;;;4135386;28;20085;-73
2022/07/11 10:29:44;;;;;;;0.20;0.20;;;21.60;99.90;;;;;;4135094;28;20038;-74
2022/07/11 10:32:02;;;;;;;0.63;0.20;;;21.70;99.90;;;;;;4135680;28;20092;-74
2022/07/11 10:34:05;;;;;;;0.25;0.25;;;21.70;99.90;;;;;;4133871;28;20089;-74
2022/07/11 10:36:06;;;;;;;0.10;0.10;;;21.70;99.90;;;;;;4135537;28;20034;-74
2022/07/11 10:38:07;;;;;;;0.10;0.10;;;21.80;99.90;;;;;;4137056;28;20037;-73
2022/07/11 10:40:08;;;;;;;0.20;0.20;;;21.80;99.90;;;;;;4135436;28;20088;-74
2022/07/11 10:42:19;;;;;;;0.32;0.20;;;21.80;99.90;;;;;;4135331;28;20109;-74
2022/07/11 10:44:21;;;;;;;0.80;0.25;;;21.80;99.90;;;;;;4130647;28;20062;-73